sensor_id;sensor_type;location;lat;lon;timestamp;P1;durP1;ratioP1;P2;durP2;ratioP2
84355;SDS011;74539;43.518;1.504;2024-01-16T00:01:05;1.65;;;1.17;;
84355;SDS011;74539;43.518;1.504;2024-01-16T00:03:31;1.60;;;1.10;;
84355;SDS011;74539;43.518;1.504;2024-01-16T00:05:57;2.00;;;1.40;;
84355;SDS011;74539;43.518;1.504;2024-01-16T00:08:23;1.83;;;1.20;;
84355;SDS011;74539;43.518;1.504;2024-01-16T00:10:48;1.42;;;1.10;;
84355;SDS011;74539;43.518;1.504;2024-01-16T00:13:15;2.35;;;0.95;;
84355;SDS011;74539;43.518;1.504;2024-01-16T00:15:40;1.80;;;0.93;;
84355;SDS011;74539;43.518;1.504;2024-01-16T00:18:06;1.52;;;1.00;;
84355;SDS011;74539;43.518;1.504;2024-01-16T00:20:33;2.67;;;0.90;;
84355;SDS011;74539;43.518;1.504;2024-01-16T00:22:59;3.17;;;1.10;;
84355;SDS011;74539;43.518;1.504;2024-01-16T00:25:25;1.15;;;1.00;;
84355;SDS011;74539;43.518;1.504;2024-01-16T00:27:50;1.10;;;0.85;;
84355;SDS011;74539;43.518;1.504;2024-01-16T00:30:16;1.60;;;1.02;;
84355;SDS011;74539;43.518;1.504;2024-01-16T00:32:42;1.98;;;1.02;;
84355;SDS011;74539;43.518;1.504;2024-01-16T00:35:07;1.60;;;1.20;;
84355;SDS011;74539;43.518;1.504;2024-01-16T00:37:33;1.88;;;0.98;;
84355;SDS011;74539;43.518;1.504;2024-01-16T00:40:00;2.28;;;1.00;;
84355;SDS011;74539;43.518;1.504;2024-01-16T00:42:26;1.17;;;1.00;;
84355;SDS011;74539;43.518;1.504;2024-01-16T00:44:52;1.60;;;0.90;;
84355;SDS011;74539;43.518;1.504;2024-01-16T00:47:17;1.92;;;1.25;;
84355;SDS011;74539;43.518;1.504;2024-01-16T00:49:42;1.27;;;0.98;;
84355;SDS011;74539;43.518;1.504;2024-01-16T00:52:08;2.20;;;0.93;;
84355;SDS011;74539;43.518;1.504;2024-01-16T00:54:33;1.95;;;1.02;;
84355;SDS011;74539;43.518;1.504;2024-01-16T00:56:59;1.70;;;1.00;;
84355;SDS011;74539;43.518;1.504;2024-01-16T00:59:27;1.30;;;1.00;;
84355;SDS011;74539;43.518;1.504;2024-01-16T01:01:52;1.73;;;0.93;;
84355;SDS011;74539;43.518;1.504;2024-01-16T01:04:18;1.63;;;1.00;;
84355;SDS011;74539;43.518;1.504;2024-01-16T01:06:44;2.10;;;0.90;;
84355;SDS011;74539;43.518;1.504;2024-01-16T01:09:09;1.17;;;0.90;;
84355;SDS011;74539;43.518;1.504;2024-01-16T01:11:38;1.00;;;0.90;;
84355;SDS011;74539;43.518;1.504;2024-01-16T01:14:04;1.38;;;0.82;;
84355;SDS011;74539;43.518;1.504;2024-01-16T01:16:29;1.48;;;0.80;;
84355;SDS011;74539;43.518;1.504;2024-01-16T01:18:54;1.05;;;0.95;;
84355;SDS011;74539;43.518;1.504;2024-01-16T01:21:20;0.95;;;0.80;;
84355;SDS011;74539;43.518;1.504;2024-01-16T01:23:45;1.30;;;1.00;;
84355;SDS011;74539;43.518;1.504;2024-01-16T01:26:11;0.93;;;0.85;;
84355;SDS011;74539;43.518;1.504;2024-01-16T01:28:39;2.45;;;0.80;;
84355;SDS011;74539;43.518;1.504;2024-01-16T01:31:05;1.17;;;0.80;;
84355;SDS011;74539;43.518;1.504;2024-01-16T01:33:33;1.08;;;0.80;;
84355;SDS011;74539;43.518;1.504;2024-01-16T01:35:58;1.35;;;0.80;;
84355;SDS011;74539;43.518;1.504;2024-01-16T01:38:24;0.95;;;0.80;;
84355;SDS011;74539;43.518;1.504;2024-01-16T01:40:49;1.42;;;0.82;;
84355;SDS011;74539;43.518;1.504;2024-01-16T01:43:18;1.40;;;0.90;;
84355;SDS011;74539;43.518;1.504;2024-01-16T01:45:47;1.10;;;0.88;;
84355;SDS011;74539;43.518;1.504;2024-01-16T01:48:33;0.95;;;0.70;;
84355;SDS011;74539;43.518;1.504;2024-01-16T01:50:59;1.00;;;0.80;;
84355;SDS011;74539;43.518;1.504;2024-01-16T01:53:26;1.35;;;0.77;;
84355;SDS011;74539;43.518;1.504;2024-01-16T01:55:53;1.65;;;0.90;;
84355;SDS011;74539;43.518;1.504;2024-01-16T01:58:20;1.20;;;0.80;;
84355;SDS011;74539;43.518;1.504;2024-01-16T02:00:46;1.67;;;0.80;;
84355;SDS011;74539;43.518;1.504;2024-01-16T02:03:11;0.77;;;0.63;;
84355;SDS011;74539;43.518;1.504;2024-01-16T02:05:38;1.73;;;0.70;;
84355;SDS011;74539;43.518;1.504;2024-01-16T02:08:04;1.23;;;0.82;;
84355;SDS011;74539;43.518;1.504;2024-01-16T02:10:31;1.33;;;0.68;;
84355;SDS011;74539;43.518;1.504;2024-01-16T02:12:57;1.75;;;0.82;;
84355;SDS011;74539;43.518;1.504;2024-01-16T02:15:23;1.17;;;0.73;;
84355;SDS011;74539;43.518;1.504;2024-01-16T02:17:49;1.15;;;0.90;;
84355;SDS011;74539;43.518;1.504;2024-01-16T02:20:14;1.55;;;0.80;;
84355;SDS011;74539;43.518;1.504;2024-01-16T02:22:40;1.05;;;0.77;;
84355;SDS011;74539;43.518;1.504;2024-01-16T02:25:11;1.60;;;0.70;;
84355;SDS011;74539;43.518;1.504;2024-01-16T02:27:36;1.75;;;0.90;;
84355;SDS011;74539;43.518;1.504;2024-01-16T02:30:02;0.95;;;0.60;;
84355;SDS011;74539;43.518;1.504;2024-01-16T02:32:27;0.95;;;0.60;;
84355;SDS011;74539;43.518;1.504;2024-01-16T02:34:53;0.80;;;0.60;;
84355;SDS011;74539;43.518;1.504;2024-01-16T02:37:18;1.73;;;0.73;;
84355;SDS011;74539;43.518;1.504;2024-01-16T02:39:44;0.80;;;0.70;;
84355;SDS011;74539;43.518;1.504;2024-01-16T02:42:10;0.80;;;0.60;;
84355;SDS011;74539;43.518;1.504;2024-01-16T02:44:35;1.05;;;0.60;;
84355;SDS011;74539;43.518;1.504;2024-01-16T02:47:01;1.63;;;0.70;;
84355;SDS011;74539;43.518;1.504;2024-01-16T02:49:26;0.52;;;0.50;;
84355;SDS011;74539;43.518;1.504;2024-01-16T02:51:52;1.17;;;0.70;;
84355;SDS011;74539;43.518;1.504;2024-01-16T02:54:18;1.02;;;0.68;;
84355;SDS011;74539;43.518;1.504;2024-01-16T02:56:43;1.20;;;0.60;;
84355;SDS011;74539;43.518;1.504;2024-01-16T02:59:09;1.38;;;0.60;;
84355;SDS011;74539;43.518;1.504;2024-01-16T03:01:34;1.45;;;0.77;;
84355;SDS011;74539;43.518;1.504;2024-01-16T03:04:00;0.85;;;0.57;;
84355;SDS011;74539;43.518;1.504;2024-01-16T03:06:25;0.50;;;0.50;;
84355;SDS011;74539;43.518;1.504;2024-01-16T03:08:51;0.88;;;0.50;;
84355;SDS011;74539;43.518;1.504;2024-01-16T03:11:17;1.02;;;0.60;;
84355;SDS011;74539;43.518;1.504;2024-01-16T03:13:42;0.57;;;0.50;;
84355;SDS011;74539;43.518;1.504;2024-01-16T03:16:08;1.00;;;0.60;;
84355;SDS011;74539;43.518;1.504;2024-01-16T03:18:36;1.10;;;0.60;;
84355;SDS011;74539;43.518;1.504;2024-01-16T03:21:02;0.70;;;0.52;;
84355;SDS011;74539;43.518;1.504;2024-01-16T03:23:28;1.33;;;0.60;;
84355;SDS011;74539;43.518;1.504;2024-01-16T03:25:54;0.90;;;0.60;;
84355;SDS011;74539;43.518;1.504;2024-01-16T03:28:19;1.55;;;0.43;;
84355;SDS011;74539;43.518;1.504;2024-01-16T03:30:45;1.02;;;0.65;;
84355;SDS011;74539;43.518;1.504;2024-01-16T03:33:11;0.55;;;0.50;;
84355;SDS011;74539;43.518;1.504;2024-01-16T03:35:36;1.00;;;0.60;;
84355;SDS011;74539;43.518;1.504;2024-01-16T03:38:02;0.50;;;0.50;;
84355;SDS011;74539;43.518;1.504;2024-01-16T03:40:27;1.05;;;0.70;;
84355;SDS011;74539;43.518;1.504;2024-01-16T03:42:53;0.90;;;0.70;;
84355;SDS011;74539;43.518;1.504;2024-01-16T03:45:19;1.60;;;0.80;;
84355;SDS011;74539;43.518;1.504;2024-01-16T03:47:45;1.00;;;0.60;;
84355;SDS011;74539;43.518;1.504;2024-01-16T03:50:10;1.10;;;0.65;;
84355;SDS011;74539;43.518;1.504;2024-01-16T03:52:36;1.02;;;0.60;;
84355;SDS011;74539;43.518;1.504;2024-01-16T03:55:01;0.98;;;0.60;;
84355;SDS011;74539;43.518;1.504;2024-01-16T03:57:27;0.93;;;0.68;;
84355;SDS011;74539;43.518;1.504;2024-01-16T03:59:52;0.95;;;0.70;;
84355;SDS011;74539;43.518;1.504;2024-01-16T04:02:17;1.13;;;0.70;;
84355;SDS011;74539;43.518;1.504;2024-01-16T04:04:43;1.63;;;0.70;;
84355;SDS011;74539;43.518;1.504;2024-01-16T04:07:08;0.40;;;0.40;;
84355;SDS011;74539;43.518;1.504;2024-01-16T04:09:34;1.35;;;0.60;;
84355;SDS011;74539;43.518;1.504;2024-01-16T04:12:00;1.25;;;0.70;;
84355;SDS011;74539;43.518;1.504;2024-01-16T04:14:25;1.73;;;0.68;;
84355;SDS011;74539;43.518;1.504;2024-01-16T04:16:51;1.20;;;0.80;;
84355;SDS011;74539;43.518;1.504;2024-01-16T04:19:16;0.80;;;0.70;;
84355;SDS011;74539;43.518;1.504;2024-01-16T04:21:42;0.70;;;0.60;;
84355;SDS011;74539;43.518;1.504;2024-01-16T04:24:07;0.95;;;0.57;;
84355;SDS011;74539;43.518;1.504;2024-01-16T04:26:35;1.15;;;0.65;;
84355;SDS011;74539;43.518;1.504;2024-01-16T04:29:01;1.23;;;0.70;;
84355;SDS011;74539;43.518;1.504;2024-01-16T04:31:27;1.27;;;0.80;;
84355;SDS011;74539;43.518;1.504;2024-01-16T04:33:52;1.02;;;0.70;;
84355;SDS011;74539;43.518;1.504;2024-01-16T04:36:18;0.90;;;0.60;;
84355;SDS011;74539;43.518;1.504;2024-01-16T04:38:43;0.73;;;0.70;;
84355;SDS011;74539;43.518;1.504;2024-01-16T04:41:09;0.82;;;0.55;;
84355;SDS011;74539;43.518;1.504;2024-01-16T04:43:34;1.38;;;0.63;;
84355;SDS011;74539;43.518;1.504;2024-01-16T04:46:00;0.80;;;0.50;;
84355;SDS011;74539;43.518;1.504;2024-01-16T04:48:25;0.90;;;0.60;;
84355;SDS011;74539;43.518;1.504;2024-01-16T04:50:51;1.13;;;0.80;;
84355;SDS011;74539;43.518;1.504;2024-01-16T04:53:16;1.98;;;0.90;;
84355;SDS011;74539;43.518;1.504;2024-01-16T04:55:41;1.00;;;0.63;;
84355;SDS011;74539;43.518;1.504;2024-01-16T04:58:07;0.88;;;0.52;;
84355;SDS011;74539;43.518;1.504;2024-01-16T05:00:32;1.10;;;0.70;;
84355;SDS011;74539;43.518;1.504;2024-01-16T05:02:58;1.05;;;0.60;;
84355;SDS011;74539;43.518;1.504;2024-01-16T05:05:23;0.88;;;0.70;;
84355;SDS011;74539;43.518;1.504;2024-01-16T05:07:48;1.42;;;0.80;;
84355;SDS011;74539;43.518;1.504;2024-01-16T05:10:14;1.13;;;0.60;;
84355;SDS011;74539;43.518;1.504;2024-01-16T05:12:42;0.73;;;0.52;;
84355;SDS011;74539;43.518;1.504;2024-01-16T05:15:09;0.95;;;0.50;;
84355;SDS011;74539;43.518;1.504;2024-01-16T05:17:38;1.50;;;0.60;;
84355;SDS011;74539;43.518;1.504;2024-01-16T05:20:03;1.05;;;0.68;;
84355;SDS011;74539;43.518;1.504;2024-01-16T05:22:30;1.33;;;0.75;;
84355;SDS011;74539;43.518;1.504;2024-01-16T05:24:56;0.77;;;0.68;;
84355;SDS011;74539;43.518;1.504;2024-01-16T05:27:21;0.60;;;0.50;;
84355;SDS011;74539;43.518;1.504;2024-01-16T05:29:47;0.80;;;0.70;;
84355;SDS011;74539;43.518;1.504;2024-01-16T05:32:13;0.75;;;0.60;;
84355;SDS011;74539;43.518;1.504;2024-01-16T05:34:39;1.27;;;0.70;;
84355;SDS011;74539;43.518;1.504;2024-01-16T05:37:04;1.35;;;0.60;;
84355;SDS011;74539;43.518;1.504;2024-01-16T05:39:30;0.85;;;0.60;;
84355;SDS011;74539;43.518;1.504;2024-01-16T05:41:55;1.67;;;0.70;;
84355;SDS011;74539;43.518;1.504;2024-01-16T05:44:21;0.50;;;0.50;;
84355;SDS011;74539;43.518;1.504;2024-01-16T05:46:46;0.93;;;0.60;;
84355;SDS011;74539;43.518;1.504;2024-01-16T05:49:12;0.93;;;0.60;;
84355;SDS011;74539;43.518;1.504;2024-01-16T05:51:37;0.68;;;0.55;;
84355;SDS011;74539;43.518;1.504;2024-01-16T05:54:03;1.10;;;0.60;;
84355;SDS011;74539;43.518;1.504;2024-01-16T05:56:28;1.38;;;0.85;;
84355;SDS011;74539;43.518;1.504;2024-01-16T05:58:54;0.70;;;0.60;;
84355;SDS011;74539;43.518;1.504;2024-01-16T06:01:19;0.98;;;0.60;;
84355;SDS011;74539;43.518;1.504;2024-01-16T06:03:45;0.98;;;0.60;;
84355;SDS011;74539;43.518;1.504;2024-01-16T06:06:12;1.10;;;0.60;;
84355;SDS011;74539;43.518;1.504;2024-01-16T06:08:37;0.80;;;0.52;;
84355;SDS011;74539;43.518;1.504;2024-01-16T06:11:03;0.55;;;0.50;;
84355;SDS011;74539;43.518;1.504;2024-01-16T06:13:28;0.80;;;0.60;;
84355;SDS011;74539;43.518;1.504;2024-01-16T06:15:55;0.50;;;0.50;;
84355;SDS011;74539;43.518;1.504;2024-01-16T06:18:20;0.80;;;0.80;;
84355;SDS011;74539;43.518;1.504;2024-01-16T06:20:46;0.68;;;0.50;;
84355;SDS011;74539;43.518;1.504;2024-01-16T06:23:11;0.75;;;0.70;;
84355;SDS011;74539;43.518;1.504;2024-01-16T06:25:37;0.82;;;0.65;;
84355;SDS011;74539;43.518;1.504;2024-01-16T06:28:02;1.35;;;0.75;;
84355;SDS011;74539;43.518;1.504;2024-01-16T06:30:30;0.50;;;0.50;;
84355;SDS011;74539;43.518;1.504;2024-01-16T06:32:55;0.60;;;0.50;;
84355;SDS011;74539;43.518;1.504;2024-01-16T06:35:21;1.30;;;0.68;;
84355;SDS011;74539;43.518;1.504;2024-01-16T06:37:48;1.10;;;0.60;;
84355;SDS011;74539;43.518;1.504;2024-01-16T06:40:14;1.23;;;0.57;;
84355;SDS011;74539;43.518;1.504;2024-01-16T06:42:39;0.95;;;0.50;;
84355;SDS011;74539;43.518;1.504;2024-01-16T06:45:05;0.73;;;0.50;;
84355;SDS011;74539;43.518;1.504;2024-01-16T06:47:31;1.85;;;0.80;;
84355;SDS011;74539;43.518;1.504;2024-01-16T06:49:57;0.80;;;0.50;;
84355;SDS011;74539;43.518;1.504;2024-01-16T06:52:23;1.00;;;0.52;;
84355;SDS011;74539;43.518;1.504;2024-01-16T06:54:49;0.60;;;0.50;;
84355;SDS011;74539;43.518;1.504;2024-01-16T06:57:15;0.70;;;0.50;;
84355;SDS011;74539;43.518;1.504;2024-01-16T06:59:41;0.70;;;0.50;;
84355;SDS011;74539;43.518;1.504;2024-01-16T07:02:06;0.70;;;0.52;;
84355;SDS011;74539;43.518;1.504;2024-01-16T07:04:33;0.70;;;0.50;;
84355;SDS011;74539;43.518;1.504;2024-01-16T07:06:58;0.85;;;0.50;;
84355;SDS011;74539;43.518;1.504;2024-01-16T07:09:27;0.57;;;0.50;;
84355;SDS011;74539;43.518;1.504;2024-01-16T07:11:53;0.70;;;0.50;;
84355;SDS011;74539;43.518;1.504;2024-01-16T07:14:19;0.70;;;0.40;;
84355;SDS011;74539;43.518;1.504;2024-01-16T07:16:45;0.98;;;0.50;;
84355;SDS011;74539;43.518;1.504;2024-01-16T07:19:11;2.15;;;0.52;;
84355;SDS011;74539;43.518;1.504;2024-01-16T07:21:39;0.80;;;0.63;;
84355;SDS011;74539;43.518;1.504;2024-01-16T07:24:05;0.52;;;0.40;;
84355;SDS011;74539;43.518;1.504;2024-01-16T07:26:30;0.50;;;0.40;;
84355;SDS011;74539;43.518;1.504;2024-01-16T07:28:56;0.60;;;0.52;;
84355;SDS011;74539;43.518;1.504;2024-01-16T07:31:22;1.60;;;0.60;;
84355;SDS011;74539;43.518;1.504;2024-01-16T07:33:47;0.85;;;0.40;;
84355;SDS011;74539;43.518;1.504;2024-01-16T07:36:13;0.60;;;0.55;;
84355;SDS011;74539;43.518;1.504;2024-01-16T07:38:39;0.57;;;0.40;;
84355;SDS011;74539;43.518;1.504;2024-01-16T07:41:04;0.57;;;0.40;;
84355;SDS011;74539;43.518;1.504;2024-01-16T07:43:33;0.50;;;0.40;;
84355;SDS011;74539;43.518;1.504;2024-01-16T07:45:59;0.32;;;0.30;;
84355;SDS011;74539;43.518;1.504;2024-01-16T07:48:24;1.00;;;0.60;;
84355;SDS011;74539;43.518;1.504;2024-01-16T07:50:50;0.63;;;0.50;;
84355;SDS011;74539;43.518;1.504;2024-01-16T07:53:15;0.98;;;0.55;;
84355;SDS011;74539;43.518;1.504;2024-01-16T07:55:41;3.35;;;0.60;;
84355;SDS011;74539;43.518;1.504;2024-01-16T07:58:07;3.03;;;0.70;;
84355;SDS011;74539;43.518;1.504;2024-01-16T08:00:34;2.05;;;0.70;;
84355;SDS011;74539;43.518;1.504;2024-01-16T08:03:00;4.78;;;0.85;;
84355;SDS011;74539;43.518;1.504;2024-01-16T08:05:27;1.85;;;0.70;;
84355;SDS011;74539;43.518;1.504;2024-01-16T08:07:53;4.20;;;0.57;;
84355;SDS011;74539;43.518;1.504;2024-01-16T08:10:19;4.05;;;0.80;;
84355;SDS011;74539;43.518;1.504;2024-01-16T08:12:44;4.00;;;0.82;;
84355;SDS011;74539;43.518;1.504;2024-01-16T08:15:10;2.38;;;0.80;;
84355;SDS011;74539;43.518;1.504;2024-01-16T08:17:35;3.55;;;0.90;;
84355;SDS011;74539;43.518;1.504;2024-01-16T08:20:01;7.20;;;1.35;;
84355;SDS011;74539;43.518;1.504;2024-01-16T08:22:26;2.90;;;0.90;;
84355;SDS011;74539;43.518;1.504;2024-01-16T08:24:52;5.07;;;0.60;;
84355;SDS011;74539;43.518;1.504;2024-01-16T08:27:18;1.77;;;0.77;;
84355;SDS011;74539;43.518;1.504;2024-01-16T08:29:44;3.33;;;0.90;;
84355;SDS011;74539;43.518;1.504;2024-01-16T08:32:09;2.20;;;1.15;;
84355;SDS011;74539;43.518;1.504;2024-01-16T08:34:35;2.25;;;0.77;;
84355;SDS011;74539;43.518;1.504;2024-01-16T08:37:00;3.70;;;0.75;;
84355;SDS011;74539;43.518;1.504;2024-01-16T08:39:26;4.38;;;0.70;;
84355;SDS011;74539;43.518;1.504;2024-01-16T08:41:53;3.53;;;0.98;;
84355;SDS011;74539;43.518;1.504;2024-01-16T08:44:18;3.97;;;0.77;;
84355;SDS011;74539;43.518;1.504;2024-01-16T08:46:44;12.82;;;1.83;;
84355;SDS011;74539;43.518;1.504;2024-01-16T08:49:09;4.70;;;1.10;;
84355;SDS011;74539;43.518;1.504;2024-01-16T08:51:36;3.15;;;0.80;;
84355;SDS011;74539;43.518;1.504;2024-01-16T08:54:02;4.95;;;1.20;;
84355;SDS011;74539;43.518;1.504;2024-01-16T08:56:27;5.15;;;0.90;;
84355;SDS011;74539;43.518;1.504;2024-01-16T08:58:53;4.10;;;0.80;;
84355;SDS011;74539;43.518;1.504;2024-01-16T09:01:18;3.85;;;0.93;;
84355;SDS011;74539;43.518;1.504;2024-01-16T09:03:45;4.05;;;0.95;;
84355;SDS011;74539;43.518;1.504;2024-01-16T09:06:11;1.92;;;0.70;;
84355;SDS011;74539;43.518;1.504;2024-01-16T09:08:36;2.15;;;0.80;;
84355;SDS011;74539;43.518;1.504;2024-01-16T09:11:02;1.55;;;0.82;;
84355;SDS011;74539;43.518;1.504;2024-01-16T09:13:28;4.82;;;0.85;;
84355;SDS011;74539;43.518;1.504;2024-01-16T09:15:53;0.80;;;0.50;;
84355;SDS011;74539;43.518;1.504;2024-01-16T09:18:19;2.63;;;0.80;;
84355;SDS011;74539;43.518;1.504;2024-01-16T09:20:44;0.95;;;0.52;;
84355;SDS011;74539;43.518;1.504;2024-01-16T09:23:10;2.80;;;0.90;;
84355;SDS011;74539;43.518;1.504;2024-01-16T09:25:35;1.15;;;0.57;;
84355;SDS011;74539;43.518;1.504;2024-01-16T09:28:01;2.03;;;0.70;;
84355;SDS011;74539;43.518;1.504;2024-01-16T09:30:27;2.58;;;0.60;;
84355;SDS011;74539;43.518;1.504;2024-01-16T09:32:52;3.05;;;0.70;;
84355;SDS011;74539;43.518;1.504;2024-01-16T09:35:18;1.88;;;0.52;;
84355;SDS011;74539;43.518;1.504;2024-01-16T09:37:43;1.60;;;0.70;;
84355;SDS011;74539;43.518;1.504;2024-01-16T09:40:10;1.30;;;0.40;;
84355;SDS011;74539;43.518;1.504;2024-01-16T09:42:36;0.85;;;0.40;;
84355;SDS011;74539;43.518;1.504;2024-01-16T09:45:01;1.65;;;0.50;;
84355;SDS011;74539;43.518;1.504;2024-01-16T09:47:30;3.40;;;1.00;;
84355;SDS011;74539;43.518;1.504;2024-01-16T09:50:02;1.55;;;0.57;;
84355;SDS011;74539;43.518;1.504;2024-01-16T09:52:28;2.45;;;0.60;;
84355;SDS011;74539;43.518;1.504;2024-01-16T09:54:54;1.77;;;0.65;;
84355;SDS011;74539;43.518;1.504;2024-01-16T09:57:20;1.33;;;0.50;;
84355;SDS011;74539;43.518;1.504;2024-01-16T09:59:50;2.08;;;0.70;;
84355;SDS011;74539;43.518;1.504;2024-01-16T10:02:16;2.30;;;0.60;;
84355;SDS011;74539;43.518;1.504;2024-01-16T10:04:44;2.05;;;0.60;;
84355;SDS011;74539;43.518;1.504;2024-01-16T10:07:09;1.63;;;0.60;;
84355;SDS011;74539;43.518;1.504;2024-01-16T10:09:38;1.73;;;0.50;;
84355;SDS011;74539;43.518;1.504;2024-01-16T10:12:04;0.85;;;0.50;;
84355;SDS011;74539;43.518;1.504;2024-01-16T10:14:31;1.92;;;0.50;;
84355;SDS011;74539;43.518;1.504;2024-01-16T10:19:25;2.28;;;0.73;;
84355;SDS011;74539;43.518;1.504;2024-01-16T10:21:52;2.13;;;0.60;;
84355;SDS011;74539;43.518;1.504;2024-01-16T10:24:18;1.40;;;0.47;;
84355;SDS011;74539;43.518;1.504;2024-01-16T10:26:43;1.15;;;0.50;;
84355;SDS011;74539;43.518;1.504;2024-01-16T10:29:08;1.63;;;0.60;;
84355;SDS011;74539;43.518;1.504;2024-01-16T10:31:34;0.73;;;0.40;;
84355;SDS011;74539;43.518;1.504;2024-01-16T10:34:00;1.10;;;0.50;;
84355;SDS011;74539;43.518;1.504;2024-01-16T10:36:25;0.50;;;0.38;;
84355;SDS011;74539;43.518;1.504;2024-01-16T10:38:51;1.25;;;0.60;;
84355;SDS011;74539;43.518;1.504;2024-01-16T10:41:23;1.73;;;0.50;;
84355;SDS011;74539;43.518;1.504;2024-01-16T10:44:03;2.22;;;0.60;;
84355;SDS011;74539;43.518;1.504;2024-01-16T10:46:32;1.40;;;0.40;;
84355;SDS011;74539;43.518;1.504;2024-01-16T10:49:02;0.40;;;0.32;;
84355;SDS011;74539;43.518;1.504;2024-01-16T10:51:28;1.35;;;0.60;;
84355;SDS011;74539;43.518;1.504;2024-01-16T10:53:58;1.08;;;0.50;;
84355;SDS011;74539;43.518;1.504;2024-01-16T10:56:28;1.23;;;0.45;;
84355;SDS011;74539;43.518;1.504;2024-01-16T10:59:10;2.05;;;0.63;;
84355;SDS011;74539;43.518;1.504;2024-01-16T11:01:43;0.70;;;0.50;;
84355;SDS011;74539;43.518;1.504;2024-01-16T11:04:12;1.83;;;0.70;;
84355;SDS011;74539;43.518;1.504;2024-01-16T11:06:39;1.52;;;0.60;;
84355;SDS011;74539;43.518;1.504;2024-01-16T11:09:06;2.15;;;0.70;;
84355;SDS011;74539;43.518;1.504;2024-01-16T11:11:32;1.70;;;0.80;;
84355;SDS011;74539;43.518;1.504;2024-01-16T11:13:59;1.13;;;0.60;;
84355;SDS011;74539;43.518;1.504;2024-01-16T11:16:28;0.68;;;0.60;;
84355;SDS011;74539;43.518;1.504;2024-01-16T11:18:56;1.27;;;0.80;;
84355;SDS011;74539;43.518;1.504;2024-01-16T11:21:23;1.25;;;0.80;;
84355;SDS011;74539;43.518;1.504;2024-01-16T11:23:50;2.92;;;0.90;;
84355;SDS011;74539;43.518;1.504;2024-01-16T11:26:26;0.88;;;0.70;;
84355;SDS011;74539;43.518;1.504;2024-01-16T11:28:55;2.17;;;0.90;;
84355;SDS011;74539;43.518;1.504;2024-01-16T11:31:28;1.20;;;0.70;;
84355;SDS011;74539;43.518;1.504;2024-01-16T11:33:58;3.17;;;0.90;;
84355;SDS011;74539;43.518;1.504;2024-01-16T11:36:42;1.50;;;0.70;;
84355;SDS011;74539;43.518;1.504;2024-01-16T11:39:10;1.65;;;0.90;;
84355;SDS011;74539;43.518;1.504;2024-01-16T11:41:49;0.82;;;0.63;;
84355;SDS011;74539;43.518;1.504;2024-01-16T11:44:38;1.52;;;0.85;;
84355;SDS011;74539;43.518;1.504;2024-01-16T11:47:04;1.48;;;0.80;;
84355;SDS011;74539;43.518;1.504;2024-01-16T11:49:30;1.27;;;0.60;;
84355;SDS011;74539;43.518;1.504;2024-01-16T11:51:57;1.58;;;0.75;;
84355;SDS011;74539;43.518;1.504;2024-01-16T11:54:23;0.82;;;0.63;;
84355;SDS011;74539;43.518;1.504;2024-01-16T12:02:00;1.02;;;0.80;;
84355;SDS011;74539;43.518;1.504;2024-01-16T12:04:30;0.98;;;0.80;;
84355;SDS011;74539;43.518;1.504;2024-01-16T12:06:59;1.90;;;0.90;;
84355;SDS011;74539;43.518;1.504;2024-01-16T12:09:28;1.35;;;0.82;;
84355;SDS011;74539;43.518;1.504;2024-01-16T12:11:57;1.33;;;0.75;;
84355;SDS011;74539;43.518;1.504;2024-01-16T12:14:24;1.23;;;0.80;;
84355;SDS011;74539;43.518;1.504;2024-01-16T12:16:49;1.20;;;0.80;;
84355;SDS011;74539;43.518;1.504;2024-01-16T12:19:15;1.42;;;0.80;;
84355;SDS011;74539;43.518;1.504;2024-01-16T12:21:41;1.10;;;0.65;;
84355;SDS011;74539;43.518;1.504;2024-01-16T12:24:09;1.77;;;0.82;;
84355;SDS011;74539;43.518;1.504;2024-01-16T12:26:36;2.45;;;0.80;;
84355;SDS011;74539;43.518;1.504;2024-01-16T12:29:02;0.70;;;0.60;;
84355;SDS011;74539;43.518;1.504;2024-01-16T12:31:27;2.05;;;0.80;;
84355;SDS011;74539;43.518;1.504;2024-01-16T12:34:15;1.00;;;0.70;;
84355;SDS011;74539;43.518;1.504;2024-01-16T12:36:39;1.65;;;0.70;;
84355;SDS011;74539;43.518;1.504;2024-01-16T12:39:05;2.10;;;0.70;;
84355;SDS011;74539;43.518;1.504;2024-01-16T12:41:40;1.55;;;0.70;;
84355;SDS011;74539;43.518;1.504;2024-01-16T12:44:07;1.02;;;0.65;;
84355;SDS011;74539;43.518;1.504;2024-01-16T12:46:32;0.82;;;0.73;;
84355;SDS011;74539;43.518;1.504;2024-01-16T12:49:04;0.57;;;0.50;;
84355;SDS011;74539;43.518;1.504;2024-01-16T12:51:32;1.58;;;0.73;;
84355;SDS011;74539;43.518;1.504;2024-01-16T12:54:12;1.10;;;0.70;;
84355;SDS011;74539;43.518;1.504;2024-01-16T12:56:39;1.33;;;0.55;;
84355;SDS011;74539;43.518;1.504;2024-01-16T12:59:11;1.15;;;0.77;;
84355;SDS011;74539;43.518;1.504;2024-01-16T13:01:40;1.00;;;0.60;;
84355;SDS011;74539;43.518;1.504;2024-01-16T13:04:11;1.35;;;0.60;;
84355;SDS011;74539;43.518;1.504;2024-01-16T13:06:37;0.93;;;0.82;;
84355;SDS011;74539;43.518;1.504;2024-01-16T13:09:07;1.13;;;0.60;;
84355;SDS011;74539;43.518;1.504;2024-01-16T13:11:50;1.38;;;0.68;;
84355;SDS011;74539;43.518;1.504;2024-01-16T13:14:18;0.73;;;0.70;;
84355;SDS011;74539;43.518;1.504;2024-01-16T13:16:46;0.75;;;0.60;;
84355;SDS011;74539;43.518;1.504;2024-01-16T13:19:12;1.35;;;0.73;;
84355;SDS011;74539;43.518;1.504;2024-01-16T13:21:37;1.05;;;0.68;;
84355;SDS011;74539;43.518;1.504;2024-01-16T13:24:03;0.80;;;0.50;;
84355;SDS011;74539;43.518;1.504;2024-01-16T13:26:28;0.93;;;0.57;;
84355;SDS011;74539;43.518;1.504;2024-01-16T13:28:54;0.85;;;0.57;;
84355;SDS011;74539;43.518;1.504;2024-01-16T13:31:19;1.58;;;0.77;;
84355;SDS011;74539;43.518;1.504;2024-01-16T13:33:45;0.63;;;0.60;;
84355;SDS011;74539;43.518;1.504;2024-01-16T13:36:10;0.57;;;0.45;;
84355;SDS011;74539;43.518;1.504;2024-01-16T13:38:36;0.30;;;0.30;;
84355;SDS011;74539;43.518;1.504;2024-01-16T13:41:02;1.83;;;0.60;;
84355;SDS011;74539;43.518;1.504;2024-01-16T13:43:27;1.20;;;0.63;;
84355;SDS011;74539;43.518;1.504;2024-01-16T13:45:53;1.95;;;0.63;;
84355;SDS011;74539;43.518;1.504;2024-01-16T13:48:20;1.10;;;0.80;;
84355;SDS011;74539;43.518;1.504;2024-01-16T13:50:46;0.68;;;0.50;;
84355;SDS011;74539;43.518;1.504;2024-01-16T13:53:12;1.67;;;0.73;;
84355;SDS011;74539;43.518;1.504;2024-01-16T13:55:40;0.95;;;0.50;;
84355;SDS011;74539;43.518;1.504;2024-01-16T13:58:09;1.08;;;0.75;;
84355;SDS011;74539;43.518;1.504;2024-01-16T14:00:34;1.02;;;0.52;;
84355;SDS011;74539;43.518;1.504;2024-01-16T14:03:00;1.38;;;0.60;;
84355;SDS011;74539;43.518;1.504;2024-01-16T14:05:28;0.75;;;0.60;;
84355;SDS011;74539;43.518;1.504;2024-01-16T14:07:53;0.60;;;0.40;;
84355;SDS011;74539;43.518;1.504;2024-01-16T14:10:20;0.95;;;0.50;;
84355;SDS011;74539;43.518;1.504;2024-01-16T14:12:46;0.57;;;0.40;;
84355;SDS011;74539;43.518;1.504;2024-01-16T14:15:14;0.70;;;0.60;;
84355;SDS011;74539;43.518;1.504;2024-01-16T14:20:13;0.57;;;0.50;;
84355;SDS011;74539;43.518;1.504;2024-01-16T14:22:40;0.63;;;0.60;;
84355;SDS011;74539;43.518;1.504;2024-01-16T14:25:09;2.70;;;0.75;;
84355;SDS011;74539;43.518;1.504;2024-01-16T14:27:39;1.38;;;0.50;;
84355;SDS011;74539;43.518;1.504;2024-01-16T14:30:07;2.83;;;0.70;;
84355;SDS011;74539;43.518;1.504;2024-01-16T14:32:35;1.17;;;0.60;;
84355;SDS011;74539;43.518;1.504;2024-01-16T14:35:03;0.85;;;0.57;;
84355;SDS011;74539;43.518;1.504;2024-01-16T14:37:30;1.02;;;0.50;;
84355;SDS011;74539;43.518;1.504;2024-01-16T14:39:55;0.77;;;0.47;;
84355;SDS011;74539;43.518;1.504;2024-01-16T14:42:21;1.02;;;0.50;;
84355;SDS011;74539;43.518;1.504;2024-01-16T14:44:47;0.85;;;0.60;;
84355;SDS011;74539;43.518;1.504;2024-01-16T14:47:13;0.70;;;0.50;;
84355;SDS011;74539;43.518;1.504;2024-01-16T14:49:38;0.80;;;0.50;;
84355;SDS011;74539;43.518;1.504;2024-01-16T14:52:04;0.85;;;0.40;;
84355;SDS011;74539;43.518;1.504;2024-01-16T14:54:31;1.02;;;0.45;;